sensor_id;sensor_type;location;lat;lon;timestamp;temperature;humidity
39983;DHT22;25670;44.782;10.356;2023-11-19T00:00:23;6.00;99.90
39983;DHT22;25670;44.782;10.356;2023-11-19T00:02:49;6.30;99.90
39983;DHT22;25670;44.782;10.356;2023-11-19T00:05:15;5.90;99.90
39983;DHT22;25670;44.782;10.356;2023-11-19T00:07:42;6.60;99.90
39983;DHT22;25670;44.782;10.356;2023-11-19T00:10:12;7.50;99.90
39983;DHT22;25670;44.782;10.356;2023-11-19T00:12:41;6.60;99.90
39983;DHT22;25670;44.782;10.356;2023-11-19T00:15:08;7.00;99.90
39983;DHT22;25670;44.782;10.356;2023-11-19T00:17:41;5.60;99.90
39983;DHT22;25670;44.782;10.356;2023-11-19T00:20:14;5.60;99.90
39983;DHT22;25670;44.782;10.356;2023-11-19T00:22:41;5.60;99.90
39983;DHT22;25670;44.782;10.356;2023-11-19T00:25:11;5.60;99.90
39983;DHT22;25670;44.782;10.356;2023-11-19T00:27:37;5.60;99.90
39983;DHT22;25670;44.782;10.356;2023-11-19T00:30:05;5.60;99.90
39983;DHT22;25670;44.782;10.356;2023-11-19T00:32:33;5.60;99.90
39983;DHT22;25670;44.782;10.356;2023-11-19T00:35:00;5.60;99.90
39983;DHT22;25670;44.782;10.356;2023-11-19T00:37:26;5.60;99.90
39983;DHT22;25670;44.782;10.356;2023-11-19T00:39:52;5.60;99.90
39983;DHT22;25670;44.782;10.356;2023-11-19T00:42:18;5.60;99.90
39983;DHT22;25670;44.782;10.356;2023-11-19T00:44:45;5.70;99.90
39983;DHT22;25670;44.782;10.356;2023-11-19T00:47:12;6.00;99.90
39983;DHT22;25670;44.782;10.356;2023-11-19T00:49:38;6.70;99.90
39983;DHT22;25670;44.782;10.356;2023-11-19T00:52:05;5.90;99.90
39983;DHT22;25670;44.782;10.356;2023-11-19T00:54:32;6.00;99.90
39983;DHT22;25670;44.782;10.356;2023-11-19T00:56:59;6.60;99.90
39983;DHT22;25670;44.782;10.356;2023-11-19T00:59:25;6.00;99.90
39983;DHT22;25670;44.782;10.356;2023-11-19T01:01:51;6.00;99.90
39983;DHT22;25670;44.782;10.356;2023-11-19T01:04:17;5.90;99.90
39983;DHT22;25670;44.782;10.356;2023-11-19T01:06:43;5.70;99.90
39983;DHT22;25670;44.782;10.356;2023-11-19T01:09:09;5.80;99.90
39983;DHT22;25670;44.782;10.356;2023-11-19T01:11:36;5.30;99.90
39983;DHT22;25670;44.782;10.356;2023-11-19T01:14:02;5.40;99.90
39983;DHT22;25670;44.782;10.356;2023-11-19T01:16:28;5.00;99.90
39983;DHT22;25670;44.782;10.356;2023-11-19T01:18:54;5.00;99.90
39983;DHT22;25670;44.782;10.356;2023-11-19T01:21:22;5.00;99.90
39983;DHT22;25670;44.782;10.356;2023-11-19T01:23:48;5.50;99.90
39983;DHT22;25670;44.782;10.356;2023-11-19T01:26:15;5.20;99.90
39983;DHT22;25670;44.782;10.356;2023-11-19T01:28:41;4.90;99.90
39983;DHT22;25670;44.782;10.356;2023-11-19T01:31:11;5.00;99.90
39983;DHT22;25670;44.782;10.356;2023-11-19T01:33:39;4.90;99.90
39983;DHT22;25670;44.782;10.356;2023-11-19T01:36:06;5.30;99.90
39983;DHT22;25670;44.782;10.356;2023-11-19T01:38:35;5.10;99.90
39983;DHT22;25670;44.782;10.356;2023-11-19T01:41:02;5.20;99.90
39983;DHT22;25670;44.782;10.356;2023-11-19T01:43:36;5.30;99.90
39983;DHT22;25670;44.782;10.356;2023-11-19T01:46:04;5.40;99.90
39983;DHT22;25670;44.782;10.356;2023-11-19T01:48:32;5.30;99.90
39983;DHT22;25670;44.782;10.356;2023-11-19T01:50:58;5.30;99.90
39983;DHT22;25670;44.782;10.356;2023-11-19T01:53:25;5.30;99.90
39983;DHT22;25670;44.782;10.356;2023-11-19T01:55:52;5.30;99.90
39983;DHT22;25670;44.782;10.356;2023-11-19T01:58:18;5.30;99.90
39983;DHT22;25670;44.782;10.356;2023-11-19T02:00:45;5.20;99.90
39983;DHT22;25670;44.782;10.356;2023-11-19T02:03:12;5.60;99.90
39983;DHT22;25670;44.782;10.356;2023-11-19T02:05:39;5.30;99.90
39983;DHT22;25670;44.782;10.356;2023-11-19T02:08:06;4.80;99.90
39983;DHT22;25670;44.782;10.356;2023-11-19T02:10:32;4.60;99.90
39983;DHT22;25670;44.782;10.356;2023-11-19T02:13:01;5.60;99.90
39983;DHT22;25670;44.782;10.356;2023-11-19T02:15:28;4.70;99.90
39983;DHT22;25670;44.782;10.356;2023-11-19T02:17:54;4.90;99.90
39983;DHT22;25670;44.782;10.356;2023-11-19T02:20:21;5.20;99.90
39983;DHT22;25670;44.782;10.356;2023-11-19T02:22:47;4.90;99.90
39983;DHT22;25670;44.782;10.356;2023-11-19T02:25:29;5.00;99.90
39983;DHT22;25670;44.782;10.356;2023-11-19T02:27:58;4.90;99.90
39983;DHT22;25670;44.782;10.356;2023-11-19T02:30:25;4.90;99.90
39983;DHT22;25670;44.782;10.356;2023-11-19T02:32:56;4.80;99.90
39983;DHT22;25670;44.782;10.356;2023-11-19T02:35:24;5.50;99.90
39983;DHT22;25670;44.782;10.356;2023-11-19T02:37:50;4.80;99.90
39983;DHT22;25670;44.782;10.356;2023-11-19T02:40:16;4.70;99.90
39983;DHT22;25670;44.782;10.356;2023-11-19T02:42:43;4.60;99.90
39983;DHT22;25670;44.782;10.356;2023-11-19T02:45:10;4.50;99.90
39983;DHT22;25670;44.782;10.356;2023-11-19T02:47:41;4.60;99.90
39983;DHT22;25670;44.782;10.356;2023-11-19T02:50:12;5.10;99.90
39983;DHT22;25670;44.782;10.356;2023-11-19T02:52:44;4.50;99.90
39983;DHT22;25670;44.782;10.356;2023-11-19T02:55:12;4.40;99.90
39983;DHT22;25670;44.782;10.356;2023-11-19T02:57:39;4.50;99.90
39983;DHT22;25670;44.782;10.356;2023-11-19T03:00:20;4.60;99.90
39983;DHT22;25670;44.782;10.356;2023-11-19T03:02:51;4.70;99.90
39983;DHT22;25670;44.782;10.356;2023-11-19T03:05:36;4.80;99.90
39983;DHT22;25670;44.782;10.356;2023-11-19T03:08:02;4.80;99.90
39983;DHT22;25670;44.782;10.356;2023-11-19T03:10:29;4.90;99.90
39983;DHT22;25670;44.782;10.356;2023-11-19T03:12:55;5.40;99.90
39983;DHT22;25670;44.782;10.356;2023-11-19T03:15:22;4.70;99.90
39983;DHT22;25670;44.782;10.356;2023-11-19T03:17:49;4.80;99.90
39983;DHT22;25670;44.782;10.356;2023-11-19T03:20:16;5.20;99.90
39983;DHT22;25670;44.782;10.356;2023-11-19T03:22:42;4.80;99.90
39983;DHT22;25670;44.782;10.356;2023-11-19T03:25:09;6.10;99.90
39983;DHT22;25670;44.782;10.356;2023-11-19T03:27:36;5.00;99.90
39983;DHT22;25670;44.782;10.356;2023-11-19T03:30:03;5.50;99.90
39983;DHT22;25670;44.782;10.356;2023-11-19T03:32:32;5.00;99.90
39983;DHT22;25670;44.782;10.356;2023-11-19T03:34:59;4.90;99.90
39983;DHT22;25670;44.782;10.356;2023-11-19T03:37:26;4.90;99.90
39983;DHT22;25670;44.782;10.356;2023-11-19T03:39:54;4.80;99.90
39983;DHT22;25670;44.782;10.356;2023-11-19T03:42:21;5.10;99.90
39983;DHT22;25670;44.782;10.356;2023-11-19T03:44:47;4.80;99.90
39983;DHT22;25670;44.782;10.356;2023-11-19T03:47:16;5.40;99.90
39983;DHT22;25670;44.782;10.356;2023-11-19T03:49:42;4.80;99.90
39983;DHT22;25670;44.782;10.356;2023-11-19T03:52:09;5.30;99.90
39983;DHT22;25670;44.782;10.356;2023-11-19T03:54:36;4.80;99.90
39983;DHT22;25670;44.782;10.356;2023-11-19T03:57:02;3.30;99.90
39983;DHT22;25670;44.782;10.356;2023-11-19T03:59:29;4.70;99.90
39983;DHT22;25670;44.782;10.356;2023-11-19T04:01:56;4.60;99.90
39983;DHT22;25670;44.782;10.356;2023-11-19T04:04:22;4.50;99.90
39983;DHT22;25670;44.782;10.356;2023-11-19T04:06:48;4.40;99.90
39983;DHT22;25670;44.782;10.356;2023-11-19T04:09:14;5.30;99.90
39983;DHT22;25670;44.782;10.356;2023-11-19T04:11:41;4.40;99.90
39983;DHT22;25670;44.782;10.356;2023-11-19T04:14:07;4.50;99.90
39983;DHT22;25670;44.782;10.356;2023-11-19T04:16:33;4.50;99.90
39983;DHT22;25670;44.782;10.356;2023-11-19T04:18:59;4.60;99.90
39983;DHT22;25670;44.782;10.356;2023-11-19T04:21:25;4.70;99.90
39983;DHT22;25670;44.782;10.356;2023-11-19T04:23:52;4.70;99.90
39983;DHT22;25670;44.782;10.356;2023-11-19T04:26:19;4.50;99.90
39983;DHT22;25670;44.782;10.356;2023-11-19T04:28:45;4.50;99.90
39983;DHT22;25670;44.782;10.356;2023-11-19T04:31:11;4.50;99.90
39983;DHT22;25670;44.782;10.356;2023-11-19T04:33:37;4.50;99.90
39983;DHT22;25670;44.782;10.356;2023-11-19T04:36:04;4.70;99.90
39983;DHT22;25670;44.782;10.356;2023-11-19T04:38:30;4.70;99.90
39983;DHT22;25670;44.782;10.356;2023-11-19T04:40:56;4.70;99.90
39983;DHT22;25670;44.782;10.356;2023-11-19T04:43:23;4.70;99.90
39983;DHT22;25670;44.782;10.356;2023-11-19T04:45:49;4.70;99.90
39983;DHT22;25670;44.782;10.356;2023-11-19T04:48:15;4.70;99.90
39983;DHT22;25670;44.782;10.356;2023-11-19T04:50:41;4.70;99.90
39983;DHT22;25670;44.782;10.356;2023-11-19T04:53:07;4.60;99.90
39983;DHT22;25670;44.782;10.356;2023-11-19T04:55:34;4.50;99.90
39983;DHT22;25670;44.782;10.356;2023-11-19T04:58:00;4.60;99.90
39983;DHT22;25670;44.782;10.356;2023-11-19T05:00:26;4.50;99.90
39983;DHT22;25670;44.782;10.356;2023-11-19T05:02:52;4.50;99.90
39983;DHT22;25670;44.782;10.356;2023-11-19T05:05:18;4.50;99.90
39983;DHT22;25670;44.782;10.356;2023-11-19T05:07:44;4.40;99.90
39983;DHT22;25670;44.782;10.356;2023-11-19T05:10:10;4.40;99.90
39983;DHT22;25670;44.782;10.356;2023-11-19T05:12:36;4.50;99.90
39983;DHT22;25670;44.782;10.356;2023-11-19T05:15:03;5.20;99.90
39983;DHT22;25670;44.782;10.356;2023-11-19T05:17:29;4.50;99.90
39983;DHT22;25670;44.782;10.356;2023-11-19T05:19:55;4.50;99.90
39983;DHT22;25670;44.782;10.356;2023-11-19T05:22:22;4.80;99.90
39983;DHT22;25670;44.782;10.356;2023-11-19T05:24:48;6.20;99.90
39983;DHT22;25670;44.782;10.356;2023-11-19T05:27:15;4.90;99.90
39983;DHT22;25670;44.782;10.356;2023-11-19T05:29:41;4.50;99.90
39983;DHT22;25670;44.782;10.356;2023-11-19T05:32:08;4.40;99.90
39983;DHT22;25670;44.782;10.356;2023-11-19T05:34:35;6.60;99.90
39983;DHT22;25670;44.782;10.356;2023-11-19T05:37:01;5.80;99.90
39983;DHT22;25670;44.782;10.356;2023-11-19T05:39:28;4.50;99.90
39983;DHT22;25670;44.782;10.356;2023-11-19T05:41:54;5.30;99.90
39983;DHT22;25670;44.782;10.356;2023-11-19T05:44:20;5.00;99.90
39983;DHT22;25670;44.782;10.356;2023-11-19T05:46:46;5.50;99.90
39983;DHT22;25670;44.782;10.356;2023-11-19T05:49:12;3.90;99.90
39983;DHT22;25670;44.782;10.356;2023-11-19T05:51:40;3.90;99.90
39983;DHT22;25670;44.782;10.356;2023-11-19T05:54:09;5.40;99.90
39983;DHT22;25670;44.782;10.356;2023-11-19T05:56:36;3.70;99.90
39983;DHT22;25670;44.782;10.356;2023-11-19T05:59:03;4.90;99.90
39983;DHT22;25670;44.782;10.356;2023-11-19T06:01:35;4.00;99.90
39983;DHT22;25670;44.782;10.356;2023-11-19T06:04:02;3.70;99.90
39983;DHT22;25670;44.782;10.356;2023-11-19T06:06:29;3.60;99.90
39983;DHT22;25670;44.782;10.356;2023-11-19T06:08:55;3.50;99.90
39983;DHT22;25670;44.782;10.356;2023-11-19T06:11:21;3.50;99.90
39983;DHT22;25670;44.782;10.356;2023-11-19T06:13:47;3.40;99.90
39983;DHT22;25670;44.782;10.356;2023-11-19T06:16:17;3.40;99.90
39983;DHT22;25670;44.782;10.356;2023-11-19T06:18:43;3.40;99.90
39983;DHT22;25670;44.782;10.356;2023-11-19T06:21:11;4.90;99.90
39983;DHT22;25670;44.782;10.356;2023-11-19T06:23:37;3.30;99.90
39983;DHT22;25670;44.782;10.356;2023-11-19T06:26:04;3.30;99.90
39983;DHT22;25670;44.782;10.356;2023-11-19T06:28:31;3.20;99.90
39983;DHT22;25670;44.782;10.356;2023-11-19T06:30:58;3.20;99.90
39983;DHT22;25670;44.782;10.356;2023-11-19T06:33:24;3.20;99.90
39983;DHT22;25670;44.782;10.356;2023-11-19T06:35:50;3.20;99.90
39983;DHT22;25670;44.782;10.356;2023-11-19T06:38:16;3.40;99.90
39983;DHT22;25670;44.782;10.356;2023-11-19T06:40:43;3.40;99.90
39983;DHT22;25670;44.782;10.356;2023-11-19T06:43:09;3.20;99.90
39983;DHT22;25670;44.782;10.356;2023-11-19T06:45:35;3.40;99.90
39983;DHT22;25670;44.782;10.356;2023-11-19T06:48:03;3.70;99.90
39983;DHT22;25670;44.782;10.356;2023-11-19T06:50:31;3.20;99.90
39983;DHT22;25670;44.782;10.356;2023-11-19T06:52:58;3.30;99.90
39983;DHT22;25670;44.782;10.356;2023-11-19T06:55:24;3.40;99.90
39983;DHT22;25670;44.782;10.356;2023-11-19T06:57:50;3.40;99.90
39983;DHT22;25670;44.782;10.356;2023-11-19T07:00:16;3.50;99.90
39983;DHT22;25670;44.782;10.356;2023-11-19T07:02:44;3.70;99.90
39983;DHT22;25670;44.782;10.356;2023-11-19T07:05:10;3.80;99.90
39983;DHT22;25670;44.782;10.356;2023-11-19T07:07:38;4.00;99.90
39983;DHT22;25670;44.782;10.356;2023-11-19T07:10:04;4.20;99.90
39983;DHT22;25670;44.782;10.356;2023-11-19T07:12:32;4.30;99.90
39983;DHT22;25670;44.782;10.356;2023-11-19T07:14:58;4.50;99.90
39983;DHT22;25670;44.782;10.356;2023-11-19T07:17:25;4.60;99.90
39983;DHT22;25670;44.782;10.356;2023-11-19T07:19:51;4.70;99.90
39983;DHT22;25670;44.782;10.356;2023-11-19T07:22:17;4.80;99.90
39983;DHT22;25670;44.782;10.356;2023-11-19T07:24:43;4.90;99.90
39983;DHT22;25670;44.782;10.356;2023-11-19T07:27:09;5.10;99.90
39983;DHT22;25670;44.782;10.356;2023-11-19T07:29:35;5.20;99.90
39983;DHT22;25670;44.782;10.356;2023-11-19T07:32:02;5.50;99.90
39983;DHT22;25670;44.782;10.356;2023-11-19T07:34:28;5.40;99.90
39983;DHT22;25670;44.782;10.356;2023-11-19T07:36:55;5.60;99.90
39983;DHT22;25670;44.782;10.356;2023-11-19T07:39:25;5.60;90.90
39983;DHT22;25670;44.782;10.356;2023-11-19T07:41:51;5.90;92.70
39983;DHT22;25670;44.782;10.356;2023-11-19T07:44:17;5.70;99.90
39983;DHT22;25670;44.782;10.356;2023-11-19T07:46:43;5.70;99.90
39983;DHT22;25670;44.782;10.356;2023-11-19T07:49:11;5.80;99.90
39983;DHT22;25670;44.782;10.356;2023-11-19T07:51:37;5.80;99.90
39983;DHT22;25670;44.782;10.356;2023-11-19T07:54:03;5.90;99.90
39983;DHT22;25670;44.782;10.356;2023-11-19T07:56:30;6.30;99.90
39983;DHT22;25670;44.782;10.356;2023-11-19T07:58:56;6.00;99.90
39983;DHT22;25670;44.782;10.356;2023-11-19T08:01:22;6.10;99.90
39983;DHT22;25670;44.782;10.356;2023-11-19T08:03:49;6.30;99.90
39983;DHT22;25670;44.782;10.356;2023-11-19T08:06:15;6.30;99.90
39983;DHT22;25670;44.782;10.356;2023-11-19T08:08:41;8.10;99.90
39983;DHT22;25670;44.782;10.356;2023-11-19T08:11:08;6.50;99.90
39983;DHT22;25670;44.782;10.356;2023-11-19T08:13:35;6.70;99.90
39983;DHT22;25670;44.782;10.356;2023-11-19T08:16:01;6.80;99.90
39983;DHT22;25670;44.782;10.356;2023-11-19T08:18:27;6.90;99.90
39983;DHT22;25670;44.782;10.356;2023-11-19T08:20:53;7.00;99.90
39983;DHT22;25670;44.782;10.356;2023-11-19T08:23:20;7.10;99.90
39983;DHT22;25670;44.782;10.356;2023-11-19T08:25:46;7.20;99.90
39983;DHT22;25670;44.782;10.356;2023-11-19T08:28:12;7.40;99.90
39983;DHT22;25670;44.782;10.356;2023-11-19T08:30:38;7.50;99.90
39983;DHT22;25670;44.782;10.356;2023-11-19T08:33:05;7.60;99.90
39983;DHT22;25670;44.782;10.356;2023-11-19T08:35:33;8.00;99.90
39983;DHT22;25670;44.782;10.356;2023-11-19T08:37:59;7.80;99.90
39983;DHT22;25670;44.782;10.356;2023-11-19T08:40:25;7.70;99.90
39983;DHT22;25670;44.782;10.356;2023-11-19T08:42:56;7.80;99.90
39983;DHT22;25670;44.782;10.356;2023-11-19T08:45:22;7.90;99.90
39983;DHT22;25670;44.782;10.356;2023-11-19T08:47:48;8.30;99.90
39983;DHT22;25670;44.782;10.356;2023-11-19T08:50:15;8.10;99.90
39983;DHT22;25670;44.782;10.356;2023-11-19T08:52:41;9.60;99.90
39983;DHT22;25670;44.782;10.356;2023-11-19T08:55:07;8.30;99.90
39983;DHT22;25670;44.782;10.356;2023-11-19T08:57:35;8.30;99.90
39983;DHT22;25670;44.782;10.356;2023-11-19T09:00:02;8.40;99.90
39983;DHT22;25670;44.782;10.356;2023-11-19T09:02:37;8.50;99.90
39983;DHT22;25670;44.782;10.356;2023-11-19T09:05:04;8.60;99.90
39983;DHT22;25670;44.782;10.356;2023-11-19T09:07:31;8.60;99.90
39983;DHT22;25670;44.782;10.356;2023-11-19T09:09:57;8.80;99.90
39983;DHT22;25670;44.782;10.356;2023-11-19T09:12:23;8.80;99.90
39983;DHT22;25670;44.782;10.356;2023-11-19T09:14:50;8.90;99.90
39983;DHT22;25670;44.782;10.356;2023-11-19T09:17:16;9.00;99.90
39983;DHT22;25670;44.782;10.356;2023-11-19T09:19:44;9.10;99.90
39983;DHT22;25670;44.782;10.356;2023-11-19T09:22:10;9.50;99.90
39983;DHT22;25670;44.782;10.356;2023-11-19T09:24:36;9.30;99.90
39983;DHT22;25670;44.782;10.356;2023-11-19T09:27:02;9.60;99.90
39983;DHT22;25670;44.782;10.356;2023-11-19T09:29:31;9.60;99.90
39983;DHT22;25670;44.782;10.356;2023-11-19T09:31:58;9.70;99.90
39983;DHT22;25670;44.782;10.356;2023-11-19T09:34:24;9.70;99.90
39983;DHT22;25670;44.782;10.356;2023-11-19T09:36:50;9.80;99.90
39983;DHT22;25670;44.782;10.356;2023-11-19T09:39:17;9.90;99.90
39983;DHT22;25670;44.782;10.356;2023-11-19T09:41:45;10.00;99.90
39983;DHT22;25670;44.782;10.356;2023-11-19T09:44:11;10.20;99.90
39983;DHT22;25670;44.782;10.356;2023-11-19T09:46:41;10.20;99.90
39983;DHT22;25670;44.782;10.356;2023-11-19T09:49:08;9.30;99.90
39983;DHT22;25670;44.782;10.356;2023-11-19T09:51:36;10.40;99.90
39983;DHT22;25670;44.782;10.356;2023-11-19T09:54:02;10.50;99.90
39983;DHT22;25670;44.782;10.356;2023-11-19T09:56:29;10.60;99.90
39983;DHT22;25670;44.782;10.356;2023-11-19T09:58:55;10.90;99.90
39983;DHT22;25670;44.782;10.356;2023-11-19T10:01:22;11.00;99.90
39983;DHT22;25670;44.782;10.356;2023-11-19T10:03:48;11.60;99.90
39983;DHT22;25670;44.782;10.356;2023-11-19T10:06:16;11.20;99.90
39983;DHT22;25670;44.782;10.356;2023-11-19T10:08:42;11.20;99.90
39983;DHT22;25670;44.782;10.356;2023-11-19T10:11:09;11.30;99.90
39983;DHT22;25670;44.782;10.356;2023-11-19T10:13:39;11.30;99.90
39983;DHT22;25670;44.782;10.356;2023-11-19T10:16:09;11.40;99.90
39983;DHT22;25670;44.782;10.356;2023-11-19T10:18:37;11.40;99.90
39983;DHT22;25670;44.782;10.356;2023-11-19T10:21:05;11.50;99.90
39983;DHT22;25670;44.782;10.356;2023-11-19T10:23:48;11.60;99.90
39983;DHT22;25670;44.782;10.356;2023-11-19T10:26:15;11.60;99.90
39983;DHT22;25670;44.782;10.356;2023-11-19T10:28:41;12.10;99.90
39983;DHT22;25670;44.782;10.356;2023-11-19T10:31:10;11.80;99.90
39983;DHT22;25670;44.782;10.356;2023-11-19T10:33:36;11.90;99.90
39983;DHT22;25670;44.782;10.356;2023-11-19T10:36:02;12.00;99.90
39983;DHT22;25670;44.782;10.356;2023-11-19T10:38:29;12.10;99.90
39983;DHT22;25670;44.782;10.356;2023-11-19T10:40:56;12.20;99.90
39983;DHT22;25670;44.782;10.356;2023-11-19T10:43:22;12.60;99.90
39983;DHT22;25670;44.782;10.356;2023-11-19T10:45:49;12.40;99.90
39983;DHT22;25670;44.782;10.356;2023-11-19T10:48:15;12.40;99.90
39983;DHT22;25670;44.782;10.356;2023-11-19T10:50:43;12.50;99.90
39983;DHT22;25670;44.782;10.356;2023-11-19T10:53:11;12.60;99.90
39983;DHT22;25670;44.782;10.356;2023-11-19T10:55:47;12.60;99.90
39983;DHT22;25670;44.782;10.356;2023-11-19T10:58:16;12.70;99.90
39983;DHT22;25670;44.782;10.356;2023-11-19T11:00:57;12.90;99.90
39983;DHT22;25670;44.782;10.356;2023-11-19T11:03:34;13.00;99.90
39983;DHT22;25670;44.782;10.356;2023-11-19T11:06:03;13.10;99.90
39983;DHT22;25670;44.782;10.356;2023-11-19T11:08:30;13.10;99.90
39983;DHT22;25670;44.782;10.356;2023-11-19T11:10:57;13.20;99.90
39983;DHT22;25670;44.782;10.356;2023-11-19T11:13:27;13.30;99.90
39983;DHT22;25670;44.782;10.356;2023-11-19T11:15:55;13.30;99.90
39983;DHT22;25670;44.782;10.356;2023-11-19T11:18:24;13.40;99.90
39983;DHT22;25670;44.782;10.356;2023-11-19T11:21:00;13.50;99.90
39983;DHT22;25670;44.782;10.356;2023-11-19T11:23:47;13.30;99.90
39983;DHT22;25670;44.782;10.356;2023-11-19T11:26:39;13.70;99.90
39983;DHT22;25670;44.782;10.356;2023-11-19T11:29:35;13.90;99.90
39983;DHT22;25670;44.782;10.356;2023-11-19T11:35:01;14.20;99.90
39983;DHT22;25670;44.782;10.356;2023-11-19T11:37:47;14.10;99.90
39983;DHT22;25670;44.782;10.356;2023-11-19T11:40:16;14.20;99.90
39983;DHT22;25670;44.782;10.356;2023-11-19T11:42:44;14.30;99.90
39983;DHT22;25670;44.782;10.356;2023-11-19T11:45:12;14.40;99.90
39983;DHT22;25670;44.782;10.356;2023-11-19T11:50:12;14.50;99.90
39983;DHT22;25670;44.782;10.356;2023-11-19T11:57:59;14.80;99.90
39983;DHT22;25670;44.782;10.356;2023-11-19T12:00:32;14.90;99.90
39983;DHT22;25670;44.782;10.356;2023-11-19T12:03:00;15.00;99.90
39983;DHT22;25670;44.782;10.356;2023-11-19T12:05:27;15.10;99.90
39983;DHT22;25670;44.782;10.356;2023-11-19T12:08:01;15.10;99.90
39983;DHT22;25670;44.782;10.356;2023-11-19T12:10:32;15.20;99.90
39983;DHT22;25670;44.782;10.356;2023-11-19T12:12:59;15.20;99.90
39983;DHT22;25670;44.782;10.356;2023-11-19T12:15:26;15.30;99.90
39983;DHT22;25670;44.782;10.356;2023-11-19T12:17:54;15.70;99.90
39983;DHT22;25670;44.782;10.356;2023-11-19T12:20:24;16.30;99.90
39983;DHT22;25670;44.782;10.356;2023-11-19T12:22:52;17.30;99.90
39983;DHT22;25670;44.782;10.356;2023-11-19T12:25:19;17.90;99.90
39983;DHT22;25670;44.782;10.356;2023-11-19T12:27:53;18.90;99.90
39983;DHT22;25670;44.782;10.356;2023-11-19T12:30:24;19.30;59.70
39983;DHT22;25670;44.782;10.356;2023-11-19T12:32:51;19.90;99.90
39983;DHT22;25670;44.782;10.356;2023-11-19T12:35:19;20.40;99.90
39983;DHT22;25670;44.782;10.356;2023-11-19T12:37:47;21.10;99.10
39983;DHT22;25670;44.782;10.356;2023-11-19T12:40:18;21.20;97.20
39983;DHT22;25670;44.782;10.356;2023-11-19T12:42:45;21.10;96.90
39983;DHT22;25670;44.782;10.356;2023-11-19T12:45:12;21.40;97.00
39983;DHT22;25670;44.782;10.356;2023-11-19T12:47:43;21.60;96.20
39983;DHT22;25670;44.782;10.356;2023-11-19T12:50:10;22.20;94.90
39983;DHT22;25670;44.782;10.356;2023-11-19T12:52:37;22.90;94.50
39983;DHT22;25670;44.782;10.356;2023-11-19T12:55:24;22.50;99.90
39983;DHT22;25670;44.782;10.356;2023-11-19T12:57:51;23.20;99.90
39983;DHT22;25670;44.782;10.356;2023-11-19T13:00:23;23.20;99.90
39983;DHT22;25670;44.782;10.356;2023-11-19T13:02:53;23.00;99.90
39983;DHT22;25670;44.782;10.356;2023-11-19T13:05:29;23.00;99.90
39983;DHT22;25670;44.782;10.356;2023-11-19T13:08:07;23.20;99.90
39983;DHT22;25670;44.782;10.356;2023-11-19T13:13:16;23.80;99.90
39983;DHT22;25670;44.782;10.356;2023-11-19T13:15:43;24.70;99.90
39983;DHT22;25670;44.782;10.356;2023-11-19T13:18:11;24.50;99.90
39983;DHT22;25670;44.782;10.356;2023-11-19T13:20:37;24.80;99.90
39983;DHT22;25670;44.782;10.356;2023-11-19T13:23:05;25.00;99.90
39983;DHT22;25670;44.782;10.356;2023-11-19T13:25:33;24.40;99.90
39983;DHT22;25670;44.782;10.356;2023-11-19T13:27:59;23.30;99.90
39983;DHT22;25670;44.782;10.356;2023-11-19T13:30:26;23.80;99.90
39983;DHT22;25670;44.782;10.356;2023-11-19T13:32:52;24.40;99.90
39983;DHT22;25670;44.782;10.356;2023-11-19T13:35:21;25.10;99.90
39983;DHT22;25670;44.782;10.356;2023-11-19T13:37:48;24.90;99.90
39983;DHT22;25670;44.782;10.356;2023-11-19T13:40:14;25.10;99.90
39983;DHT22;25670;44.782;10.356;2023-11-19T13:42:42;25.10;99.90
39983;DHT22;25670;44.782;10.356;2023-11-19T13:45:09;25.50;99.90
39983;DHT22;25670;44.782;10.356;2023-11-19T13:47:40;24.80;99.90
39983;DHT22;25670;44.782;10.356;2023-11-19T13:50:08;24.30;99.90
39983;DHT22;25670;44.782;10.356;2023-11-19T13:52:36;24.10;99.90
39983;DHT22;25670;44.782;10.356;2023-11-19T13:55:10;24.50;99.90
39983;DHT22;25670;44.782;10.356;2023-11-19T13:57:38;25.00;99.90
39983;DHT22;25670;44.782;10.356;2023-11-19T14:00:06;24.70;99.90
39983;DHT22;25670;44.782;10.356;2023-11-19T14:02:35;24.90;99.90
39983;DHT22;25670;44.782;10.356;2023-11-19T14:05:01;24.50;99.90
39983;DHT22;25670;44.782;10.356;2023-11-19T14:07:27;24.50;99.90
39983;DHT22;25670;44.782;10.356;2023-11-19T14:09:53;24.90;99.90
39983;DHT22;25670;44.782;10.356;2023-11-19T14:12:20;24.70;99.90
39983;DHT22;25670;44.782;10.356;2023-11-19T14:14:46;24.40;99.90
39983;DHT22;25670;44.782;10.356;2023-11-19T14:17:12;24.30;99.90
39983;DHT22;25670;44.782;10.356;2023-11-19T14:19:38;24.50;99.90
39983;DHT22;25670;44.782;10.356;2023-11-19T14:22:05;24.40;99.90
39983;DHT22;25670;44.782;10.356;2023-11-19T14:24:32;24.40;99.90
39983;DHT22;25670;44.782;10.356;2023-11-19T14:26:58;24.60;99.90
39983;DHT22;25670;44.782;10.356;2023-11-19T14:29:25;24.60;99.90
39983;DHT22;25670;44.782;10.356;2023-11-19T14:31:55;23.90;99.90
39983;DHT22;25670;44.782;10.356;2023-11-19T14:34:22;24.10;99.90
39983;DHT22;25670;44.782;10.356;2023-11-19T14:36:48;24.20;99.90
39983;DHT22;25670;44.782;10.356;2023-11-19T14:39:15;24.40;99.90
39983;DHT22;25670;44.782;10.356;2023-11-19T14:41:42;24.80;99.90
39983;DHT22;25670;44.782;10.356;2023-11-19T14:44:10;24.70;99.90
39983;DHT22;25670;44.782;10.356;2023-11-19T14:46:36;23.90;99.90
39983;DHT22;25670;44.782;10.356;2023-11-19T14:49:02;23.10;99.90
39983;DHT22;25670;44.782;10.356;2023-11-19T14:51:30;22.70;99.90
39983;DHT22;25670;44.782;10.356;2023-11-19T14:53:56;22.00;99.90
39983;DHT22;25670;44.782;10.356;2023-11-19T14:56:23;22.30;99.90
39983;DHT22;25670;44.782;10.356;2023-11-19T14:58:49;22.20;99.90
39983;DHT22;25670;44.782;10.356;2023-11-19T15:01:17;22.10;99.90
39983;DHT22;25670;44.782;10.356;2023-11-19T15:03:44;21.30;99.90
39983;DHT22;25670;44.782;10.356;2023-11-19T15:06:10;21.00;99.90
39983;DHT22;25670;44.782;10.356;2023-11-19T15:08:37;20.40;91.60
39983;DHT22;25670;44.782;10.356;2023-11-19T15:11:04;20.40;90.90
39983;DHT22;25670;44.782;10.356;2023-11-19T15:13:32;20.60;91.20
39983;DHT22;25670;44.782;10.356;2023-11-19T15:15:59;20.60;90.90
39983;DHT22;25670;44.782;10.356;2023-11-19T15:18:25;20.20;90.90
39983;DHT22;25670;44.782;10.356;2023-11-19T15:20:52;19.80;91.60
39983;DHT22;25670;44.782;10.356;2023-11-19T15:23:18;19.60;91.80
39983;DHT22;25670;44.782;10.356;2023-11-19T15:25:45;19.40;93.10
39983;DHT22;25670;44.782;10.356;2023-11-19T15:28:11;19.10;93.00
39983;DHT22;25670;44.782;10.356;2023-11-19T15:30:37;18.80;94.00
39983;DHT22;25670;44.782;10.356;2023-11-19T15:33:03;18.50;93.90
39983;DHT22;25670;44.782;10.356;2023-11-19T15:35:30;17.90;94.90
39983;DHT22;25670;44.782;10.356;2023-11-19T15:37:56;17.20;96.00
39983;DHT22;25670;44.782;10.356;2023-11-19T15:40:22;16.60;98.00